Granville Center, Massachusetts
Current Conditions -  °F | °C
As of 6:53 AM on Thursday 29 Jan 2015 (Local Time) from KBAF Reporting Station
Clear Clear  
Wind Chill: -3°   Ceiling: Unl
Heat Index: -3°   Visibility: 10mi
Dew Point: -9°   Wind: 0mph
Humidity: 75%   Direction: NA
Pressure: 30.32"   Gusts: NA
Location:  42.0855°N, 72.9568°W
Report Text: KBAF 291153Z 00000KT 10SM CLR M19/M23 A3032 RMK AO2 SLP278 I1000 I6000 T11941228 11144 21217 51007
Loading
Personal Weather Stations






























Interactive Weather Map New forecast layout! Learn more

10-Day Weather Forecast

Advertisements
Track Severe Weather on mobile